Main Content

NOTICE: Although all weather products are taken from the National Weather Service, this data should be used only as a supplement to a formal weather briefing.

Last Updated: Wednesday, September 27th, 2023, 7:58 am
Information on this page is updated every 5 minutes.


METARS

KMDH 271227Z 12006KT 10SM FEW080 BKN110 18/17 A3008 RMK AO2 LTG DSNT NE RAB17E26

KMDH 271209Z AUTO 05006KT 10SM VCTS FEW070 SCT085 OVC100 18/17 A3009 RMK AO2 LTG

KMDH 271200Z AUTO 00000KT 10SM FEW065 SCT075 BKN110 18/17 A3008 RMK AO2 LTG DSNT

KMDH 271152Z AUTO 12006KT 10SM VCTS FEW060 SCT080 BKN110 18/17 A3006 RMK AO2 LTG

KMDH 271145Z AUTO 16004KT 10SM VCTS FEW055 SCT085 BKN110 18/17 A3007 RMK AO2 LTG

KMDH 271052Z AUTO 31010KT 10SM -RA SCT075 BKN110 18/16 A3006 RMK AO2 LTG DSNT

KMDH 270952Z AUTO 07005KT 10SM FEW050 BKN070 OVC110 18/17 A3002 RMK AO2 LTG DSNT

KMWA 271245Z 10007KT 10SM SCT075 BKN085 OVC110 17/17 A3009

KMWA 271145Z 06009KT 10SM RA SCT027 BKN060 OVC120 17/17 A3008

KMWA 271135Z AUTO 05008KT 7SM RA SCT029 BKN060 OVC120 17/16 A3009 RMK AO2 P0003

KMWA 271115Z AUTO 34007KT 10SM RA SCT060 OVC070 18/16 A3010 RMK AO2 T01800158

KMWA 271055Z AUTO 09006KT 10SM BKN070 BKN080 OVC110 18/16 A3006 RMK AO2

KMWA 271035Z AUTO 00000KT 10SM SCT075 SCT090 BKN120 17/16 A3005 RMK AO2

KMWA 271015Z AUTO 05006KT 10SM SCT075 BKN090 OVC110 17/16 A3005 RMK AO2

KMWA 270955Z AUTO 32005KT 10SM SCT075 OVC110 18/16 A3005 RMK AO2 T01750161

KCGI 271153Z 11004KT 10SM R10/1600V2600FT OVC110 19/16 A3004 RMK AO2 SLP170

KCGI 271053Z AUTO 12005KT 10SM R10/1600V2800FT FEW120 18/16 A3002 RMK AO2 SLP162

KCGI 270953Z AUTO 12003KT 10SM R10/1600V3000FT FEW120 18/16 A3001 RMK AO2 SLP160

KSAR 271215Z AUTO 12005KT 2 1/2SM +TSDZ SCT007 BKN110 17/17 A3006 RMK AO2 LTG

KSAR 271155Z AUTO 12008KT 3SM DZ SCT070 OVC110 17/17 A3005 RMK AO2 LTG DSNT ALQS

KSAR 271135Z AUTO 12010KT 3SM +TSRA SCT060 SCT070 OVC100 17/17 A3006 RMK AO2 LTG

KSAR 271115Z AUTO 09014KT 7SM TSRA SCT060 BKN070 OVC120 17/17 A3005 RMK AO2 LTG

KSAR 271055Z AUTO 11009KT 10SM -VCTSDZ SCT027 BKN090 OVC110 17/17 A3005 RMK AO2

KSAR 271035Z AUTO 11004KT 5SM /VCTSRA SCT024 BKN075 OVC100 18/17 A3007 RMK AO2

KSAR 271015Z AUTO 00000KT 10SM -TSRA SCT009 SCT060 OVC090 17/17 A3005 RMK AO2

KSAR 270955Z AUTO 34008G16KT 10SM BKN090 17/16 A3005 RMK AO2 LTG DSNT W THRU NE

KFAM 271239Z AUTO 10004KT 10SM OVC110 18/16 A3008 RMK AO2 TSB14E33RAB1157E32

KFAM 271220Z AUTO 14005KT 10SM VCTS -RA FEW055 OVC110 18/16 A3008 RMK AO2

KFAM 271156Z AUTO 05004KT 9SM FEW050 OVC110 18/16 A3008 RMK AO2 LTG DSNT NE

KFAM 271056Z AUTO 16004KT 10SM OVC100 18/16 A3004 RMK AO2 LTG DSNT NE RAB22E34

KFAM 270956Z AUTO 14005KT 10SM BKN100 18/16 A3003 RMK AO2 LTG DSNT N AND NE

KMVN 271249Z AUTO VRB04KT 10SM -RA SCT070 OVC100 17/17 A3005 RMK AO2 LTG DSNT

KMVN 271156Z AUTO 05005KT 5SM TSRA BR BKN060 BKN075 OVC100 17/17 A3009 RMK AO2

KMVN 271130Z AUTO 00000KT 6SM -RA BR FEW028 BKN046 OVC100 17/17 A3008 RMK AO2

KMVN 271056Z AUTO 04008KT 5SM -TSRA BR SCT026 BKN040 OVC065 17/16 A3008 RMK AO2

KMVN 271050Z AUTO 05009KT 3SM +TSRA BR FEW016 BKN040 OVC048 17/17 A3007 RMK AO2

KMVN 271041Z AUTO 08011KT 2 1/2SM +TSRA BR FEW010 BKN026 OVC050 17/17 A3008 RMK

KMVN 270956Z AUTO 04007KT 10SM -TSRA FEW050 SCT075 OVC090 17/17 A3005 RMK AO2

KHSB 271235Z AUTO 05010G15KT 10SM VCTSRA SCT045 SCT070 OVC110 17/17 A3010 RMK

KHSB 271215Z AUTO 05010G20KT 10SM -TSRA SCT045 BKN090 OVC110 17/17 A3011 RMK AO2

KHSB 271155Z AUTO 35005KT 5SM +RA SCT011 SCT044 OVC060 18/17 A3012 RMK AO2 LTG

KCIR 271235Z AUTO 11003KT 10SM BKN110 19/17 A3008 RMK AO2 T01920167

KCIR 271215Z AUTO 12004KT 10SM BKN120 19/16 A3007 RMK AO2 T01880164

KCIR 271155Z AUTO 06003KT 10SM BKN120 19/16 A3007 RMK AO2 T01850163 10199 20167

KPAH 271153Z 00000KT 10SM SCT110 18/16 A3006 RMK AO2 SLP175 T01780156 10206

KFAM 271239Z AUTO 10004KT 10SM OVC110 18/16 A3008 RMK AO2 TSB14E33RAB1157E32

KFAM 271220Z AUTO 14005KT 10SM VCTS -RA FEW055 OVC110 18/16 A3008 RMK AO2

KFAM 271156Z AUTO 05004KT 9SM FEW050 OVC110 18/16 A3008 RMK AO2 LTG DSNT NE

KBLV 271234Z 05005KT 10SM -RA BR FEW032 FEW060 OVC100 18/17 A3002 RMK AO2A

KBLV 271219Z 14006KT 7SM -RA BR SCT043 BKN100 17/17 A2999 RMK AO2A VIS 1 1/2

KBLV 271204Z 17007KT 7SM -TSRA BR SCT049 BKN100 18/17 A3001 RMK LTG DSNT NE

KBLV 271159Z 19005KT 10SM -RA BR FEW015 BKN100 18/17 A3001 RMK AO2A LTG DSNT NE

KCPS 271224Z VRB05KT 10SM -RA BKN100 BKN120 18/17 A3002 RMK AO2 LTG DSNT NE AND

KCPS 271153Z 16013G24KT 6SM VCTS RA BR FEW050 SCT085 OVC110 18/17 A3000 RMK AO2

KENL 271235Z AUTO 00000KT 10SM RA SCT065 SCT080 OVC100 17/17 A3004 RMK AO2 LTG

KENL 271215Z AUTO 13008KT 10SM -TSRA BKN110 17/17 A3003 RMK AO2 LTG DSNT ALQDS

KENL 271155Z AUTO 12008KT 7SM -TSRA SCT035 SCT050 OVC100 17/17 A3004 RMK AO2 LTG

KMTO 271153Z AUTO 17008KT 10SM CLR 17/16 A3002 RMK AO2 SLP163 60043 70057

KCUL 271235Z AUTO 08005KT 5SM VCTSRA SCT041 BKN070 OVC100 18/17 A3012 RMK AO2

KCUL 271215Z AUTO 00000KT 3SM +TSRA SCT037 BKN043 OVC050 18/16 A3014 RMK AO2 LTG

KCUL 271155Z AUTO 32010KT 4SM +TSRA SCT037 BKN043 OVC070 18/17 A3014 RMK AO2 LTG

KEVV 271154Z 31008G16KT 8SM -RA OVC085 18/16 A3010 RMK AO2 LTG DSNT S AND SW

KOWB 271156Z 35004KT 10SM BKN085 19/17 A3010 RMK AO2 LTG DSNT W RAE19 SLP191

KEHR 271156Z AUTO 30004KT 10SM TSRA SCT046 BKN065 OVC110 17/16 A3011 RMK AO2 LTG

KCEY 271235Z AUTO 08003KT 10SM CLR 18/18 A3009 RMK A01

KCEY 271215Z AUTO 00000KT 10SM CLR 17/17 A3008 RMK A01

KCEY 271155Z AUTO 08004KT 10SM FEW050 17/17 A3007 RMK A01

KARG 271156Z AUTO 00000KT 10SM CLR 18/16 A3002 RMK AO2 SLP166 T01830161 10222

KJBR 271153Z AUTO 00000KT 10SM CLR 18/16 A3002 RMK AO2 SLP164 T01780156 10211

KCOU 271154Z 02004KT 10SM CLR 14/14 A3002 RMK AO2 SLP158 60020 70021 T01440144

KCOU 271152Z AUTO 01004KT 3SM BR CLR 14/14 A3002 RMK AO2

KSPI 271224Z 00000KT 4SM BR SCT006 15/15 A3002 RMK AO2 T01500150

KSPI 271221Z 00000KT 2 1/2SM BR SCT006 16/15 A3002 RMK AO2 T01560150

KSPI 271210Z 34003KT 4SM BR FEW006 15/14 A3001 RMK AO2 T01500144

KSPI 271152Z 00000KT 7SM CLR 16/16 A3001 RMK AO2 SLP160 60009 70050 T01610156

KAJG 271215Z AUTO 20018G22KT 10SM +TSRA OVC100 18/16 A3007 RMK AO2 LTG DSNT S

KAJG 271155Z AUTO 22014G17KT 10SM RA OVC100 18/18 A3009 RMK AO2 LTG DSNT SW

KM30 271235Z AUTO 07003KT 10SM BKN080 OVC090 18/15 A3010 RMK AO2 LTG DSNT NE

KM30 271215Z AUTO 03003KT 10SM VCTS BKN080 OVC110 18/15 A3010 RMK AO2 T01800150

KM30 271155Z AUTO 00000KT 10SM SCT080 OVC110 18/15 A3008 RMK AO2 LTG DSNT NW

KDEC 271154Z 18008KT 10SM CLR 17/17 A3002 RMK AO2 SLP161 60000 70011 T01720167

KIJX 271215Z AUTO 21003KT 7SM VCTS OVC007 15/13 A3002 RMK AO2 T01520130

KIJX 271155Z AUTO 28003KT 1 1/4SM BKN007 14/12 A3002 RMK AO2 LTG DSNT S 70048


TAFS

KEVV 271120Z 2712/2812 VRB04KT P6SM VCSH SCT060 BKN100

        TEMPO 2712/2716 4SM TSRA BKN040CB

        FM271700 VRB06KT P6SM SCT060 BKN120

        FM280200 VRB03KT P6SM VCSH BKN080


Winds Aloft


Reports

No pilot reports found for area.



Area Forecast



Significant Weather

WSUS32 KKCI 271055 SIGC CONVECTIVE SIGMET 53C VALID UNTIL 1255Z KY IN IL MO FROM 30SSE UIN-30WSW TTH-30E PXV-30SSE PXV-20S FAM-30SSE UIN AREA TS MOV FROM 29015KT. TOPS TO FL450. OUTLOOK VALID 271255-271655 AREA 1...FROM 40ESE GRB-BNA-50WNW FAM-DBQ-40ESE GRB WST ISSUANCES EXPD. REFER TO MOST RECENT ACUS01 KWNS FROM STORM PREDICTION CENTER FOR SYNOPSIS AND METEOROLOGICAL DETAILS. AREA 2...FROM 60W MGM-130ESE LEV-120SSW LCH-70E BRO-90W BRO-LRD-CRP-50W LCH-30SSE LSU-60W MGM WST ISSUANCES EXPD. REFER TO MOST RECENT ACUS01 KWNS FROM STORM PREDICTION CENTER FOR SYNOPSIS AND METEOROLOGICAL DETAILS.

WSUS32 KKCI 271155 SIGC CONVECTIVE SIGMET 58C VALID UNTIL 1355Z KY IN IL MO FROM 30NNW STL-20SSW TTH-50ENE PXV-40WNW BWG-20SW FAM-30NNW STL AREA TS MOV FROM 29015KT. TOPS TO FL430. OUTLOOK VALID 271355-271755 AREA 1...FROM 40ESE GRB-BNA-50WNW FAM-DBQ-40ESE GRB WST ISSUANCES EXPD. REFER TO MOST RECENT ACUS01 KWNS FROM STORM PREDICTION CENTER FOR SYNOPSIS AND METEOROLOGICAL DETAILS. AREA 2...FROM 60W MGM-130ESE LEV-120SSW LCH-70E BRO-90W BRO-LRD-CRP-50W LCH-30SSE LSU-60W MGM WST ISSUANCES EXPD. REFER TO MOST RECENT ACUS01 KWNS FROM STORM PREDICTION CENTER FOR SYNOPSIS AND METEOROLOGICAL DETAILS.